EW8363 Weather Reports


Display with metric or nautical units.
time (UTC)temp
F
wind
direction
speed
MPH
gust
MPH
rain 1hr
in
rain 24hr
in
rain mn
in
humidity
%
barometer
mb
20210622180848 75 90 6.0 8.0 0.00 0.00 0.00 52 1018.3
20210622180332 74 90 5.0 7.0 0.00 0.00 0.00 54 1018.6
20210622175822 74 90 4.0 7.0 0.00 0.00 0.00 55 1018.6
20210622175315 74 180 5.0 7.0 0.00 0.00 0.00 54 1018.3
20210622174802 75 135 2.0 8.0 0.00 0.00 0.00 57 1018.5
20210622174251 74 90 3.0 8.0 0.00 0.00 0.00 56 1018.3
20210622173747 74 180 4.0 6.0 0.00 0.00 0.00 55 1018.5
20210622173231 73 270 2.0 7.0 0.00 0.00 0.00 55 1018.4
20210622172725 72 90 5.0 7.0 0.00 0.00 0.00 61 1018.6
20210622172215 73 135 4.0 7.0 0.00 0.00 0.00 56 1018.4
20210622171701 73 180 5.0 7.0 0.00 0.00 0.00 57 1018.4
20210622171151 73 135 4.0 6.0 0.00 0.00 0.00 58 1018.2
20210622170642 72 180 4.0 7.0 0.00 0.00 0.00 61 1018.3
20210622170131 72 0 5.0 7.0 0.00 0.00 0.00 61 1018.3
20210622165635 73 135 3.0 8.0 0.00 0.00 0.00 59 1018.2
20210622165111 72 135 7.0 8.0 0.00 0.00 0.00 60 1018.3
20210622164600 74 90 1.0 7.0 0.00 0.00 0.00 59 1018.1
20210622164049 72 135 1.0 8.0 0.00 0.00 0.00 63 1017.9
20210622163542 71 90 5.0 8.0 0.00 0.00 0.00 61 1018.0
20210622163029 71 90 3.0 5.0 0.00 0.00 0.00 63 1018.3
20210622162520 69 180 4.0 6.0 0.00 0.00 0.00 63 1018.2
20210622162010 69 180 4.0 6.0 0.00 0.00 0.00 62 1018.1
20210622161459 71 135 4.0 5.0 0.00 0.00 0.00 62 1018.2
20210622160950 71 45 2.0 4.0 0.00 0.00 0.00 62 1018.2
20210622160441 69 180 2.0 3.0 0.00 0.00 0.00 62 1018.2
20210622155929 69 180 2.0 4.0 0.00 0.00 0.00 62 1018.1
20210622155419 70 0 1.0 7.0 0.00 0.00 0.00 66 1018.3
20210622154912 68 90 3.0 7.0 0.00 0.00 0.00 68 1018.3
20210622154359 69 90 3.0 5.0 0.00 0.00 0.00 67 1018.5
20210622153849 69 90 2.0 4.0 0.00 0.00 0.00 64 1018.4
20210622153339 69 135 3.0 5.0 0.00 0.00 0.00 63 1018.2
20210622152828 68 90 3.0 5.0 0.00 0.00 0.00 63 1018.1
20210622152324 68 180 2.0 4.0 0.00 0.00 0.00 62 1018.2
20210622151810 67 180 2.0 3.0 0.00 0.00 0.00 63 1018.0
20210622151257 66 180 1.0 6.0 0.00 0.00 0.00 64 1018.1
20210622150751 66 180 3.0 7.0 0.00 0.00 0.00 65 1018.1
20210622150239 67 180 5.0 7.0 0.00 0.00 0.00 61 1018.0
20210622145728 69 90 5.0 7.0 0.00 0.00 0.00 51 1018.2
20210622145218 70 90 3.0 5.0 0.00 0.00 0.00 43 1018.2
20210622144708 71 180 2.0 3.0 0.00 0.00 0.00 40 1018.1
20210622144157 74 90 0.0 1.0 0.00 0.00 0.00 34 1017.9
20210622143646 78 0 0.0 0.0 0.00 0.00 0.00 35 1018.0
20210622143138 74 0 0.0 0.0 0.00 0.00 0.00 40 1017.9
20210622142627 70 0 0.0 0.0 0.00 0.00 0.00 44 1017.9
20210622142116 67 270 0.0 2.0 0.00 0.00 0.00 46 1017.8
20210622141607 65 0 0.0 2.0 0.00 0.00 0.00 50 1017.9
20210622141056 63 0 0.0 1.0 0.00 0.00 0.00 54 1017.9
20210622140545 62 0 1.0 1.0 0.00 0.00 0.00 60 1018.0
20210622140051 62 0 1.0 2.0 0.00 0.00 0.00 60 1017.9
20210622135525 62 0 1.0 2.0 0.00 0.00 0.00 61 1017.9
20210622135015 61 0 0.0 2.0 0.00 0.00 0.00 63 1017.8
20210622134506 59 0 0.0 2.0 0.00 0.00 0.00 70 1017.9
20210622133955 59 0 0.0 1.0 0.00 0.00 0.00 72 1018.1
20210622133445 59 0 0.0 2.0 0.00 0.00 0.00 73 1018.0
20210622132935 58 270 1.0 2.0 0.00 0.00 0.00 76 1018.0
20210622132429 58 315 1.0 2.0 0.00 0.00 0.00 78 1017.8
20210622131914 58 0 1.0 2.0 0.00 0.00 0.00 78 1017.9
20210622131405 58 270 0.0 1.0 0.00 0.00 0.00 77 1017.9
20210622130854 58 270 0.0 3.0 0.00 0.00 0.00 76 1018.0
20210622130343 58 180 0.0 3.0 0.00 0.00 0.00 75 1017.9
20210622125835 58 90 0.0 1.0 0.00 0.00 0.00 74 1017.9
20210622125323 59 0 0.0 1.0 0.00 0.00 0.00 73 1017.9
20210622124813 60 270 1.0 1.0 0.00 0.00 0.00 71 1017.8
20210622124305 60 180 0.0 1.0 0.00 0.00 0.00 67 1017.7
20210622123753 60 270 0.0 0.0 0.00 0.00 0.00 65 1017.7
20210622123243 61 90 0.0 3.0 0.00 0.00 0.00 62 1017.7
20210622122734 62 0 0.0 3.0 0.00 0.00 0.00 54 1017.6
20210622122223 62 90 0.0 0.0 0.00 0.00 0.00 50 1017.8
20210622121713 63 0 0.0 1.0 0.00 0.00 0.00 52 1017.7
20210622121204 63 0 0.0 2.0 0.00 0.00 0.00 53 1017.7
20210622120652 62 0 0.0 2.0 0.00 0.00 0.00 54 1017.5
20210622120142 61 315 1.0 2.0 0.00 0.00 0.00 57 1017.6
20210622115633 62 0 0.0 3.0 0.00 0.00 0.00 59 1017.8
20210622115122 62 0 2.0 3.0 0.00 0.00 0.00 60 1017.8
20210622114612 62 270 1.0 1.0 0.00 0.00 0.00 61 1017.9
20210622114102 61 270 0.0 0.0 0.00 0.00 0.00 59 1018.0
20210622113551 61 0 0.0 3.0 0.00 0.00 0.00 60 1018.1
20210622113040 61 0 0.0 3.0 0.00 0.00 0.00 61 1018.0
20210622112540 62 270 1.0 3.0 0.00 0.00 0.00 62 1018.0
20210622112021 61 0 1.0 2.0 0.00 0.00 0.00 62 1018.3
20210622111513 61 0 0.0 2.0 0.00 0.00 0.00 61 1018.3
20210622111002 61 0 0.0 1.0 0.00 0.00 0.00 60 1018.3
20210622110451 61 270 0.0 3.0 0.00 0.00 0.00 61 1018.1
20210622105942 61 0 0.0 3.0 0.00 0.00 0.00 62 1018.1
20210622105433 62 0 1.0 3.0 0.00 0.00 0.00 65 1018.4
20210622104920 61 0 1.0 3.0 0.00 0.00 0.00 71 1018.4
20210622104410 60 0 1.0 3.0 0.00 0.00 0.00 71 1018.4
20210622103902 60 0 1.0 2.0 0.00 0.00 0.00 72 1018.4
20210622103350 59 0 0.0 2.0 0.00 0.00 0.00 72 1018.3
20210622102840 59 0 1.0 2.0 0.00 0.00 0.00 73 1018.3
20210622102330 59 315 0.0 0.0 0.00 0.00 0.00 74 1018.3
20210622101819 59 0 0.0 0.0 0.00 0.00 0.00 76 1018.2
20210622101310 59 0 0.0 0.0 0.00 0.00 0.00 77 1018.3
20210622100800 59 0 0.0 0.0 0.00 0.00 0.00 78 1018.2
20210622100249 59 0 0.0 1.0 0.00 0.00 0.00 80 1018.2
20210622095739 59 270 0.0 1.0 0.00 0.00 0.00 80 1018.2
20210622095231 59 270 1.0 1.0 0.00 0.00 0.00 81 1018.3
20210622094718 59 0 0.0 0.0 0.00 0.00 0.00 81 1018.4
20210622094209 59 0 0.0 0.0 0.00 0.00 0.00 81 1018.5
20210622093701 59 0 0.0 0.0 0.00 0.00 0.00 83 1018.5
20210622093147 59 0 0.0 1.0 0.00 0.00 0.00 84 1018.5
20210622092638 59 0 0.0 2.0 0.00 0.00 0.00 85 1018.8
20210622092129 59 315 1.0 3.0 0.00 0.00 0.00 87 1018.6
20210622091619 58 0 2.0 3.0 0.00 0.00 0.00 87 1018.9
20210622091107 58 0 0.0 0.0 0.00 0.00 0.00 87 1018.9
20210622090557 58 90 0.0 0.0 0.00 0.00 0.00 86 1018.8
20210622090100 58 90 0.0 0.0 0.00 0.00 0.00 86 1018.9
20210622085536 58 90 0.0 2.0 0.00 0.00 0.00 87 1018.9
20210622085030 59 90 0.0 2.0 0.00 0.00 0.00 87 1018.6
20210622084516 59 180 0.0 2.0 0.00 0.00 0.00 87 1019.0
20210622084006 58 90 0.0 0.0 0.00 0.00 0.00 87 1018.9
20210622083459 58 270 0.0 0.0 0.00 0.00 0.00 87 1018.8
20210622082946 58 0 0.0 1.0 0.00 0.00 0.00 87 1019.0
20210622082437 58 270 0.0 2.0 0.00 0.00 0.00 87 1018.9
20210622081927 58 270 1.0 2.0 0.00 0.00 0.00 87 1019.1
20210622081415 59 270 0.0 1.0 0.00 0.00 0.00 87 1019.0
20210622080905 59 0 0.0 1.0 0.00 0.00 0.00 87 1019.4
20210622080357 59 135 1.0 3.0 0.00 0.00 0.00 86 1019.2
20210622075846 59 180 2.0 3.0 0.00 0.00 0.00 86 1019.3
20210622075335 59 180 0.0 0.0 0.00 0.00 0.00 85 1019.1
20210622074826 59 90 0.0 0.0 0.00 0.00 0.00 85 1019.4
20210622074322 59 90 0.0 2.0 0.00 0.00 0.00 85 1019.4
20210622073804 60 180 0.0 3.0 0.00 0.00 0.00 84 1019.4
20210622073256 60 90 3.0 3.0 0.00 0.00 0.00 84 1019.4
20210622072745 60 180 1.0 3.0 0.00 0.00 0.00 83 1019.3
20210622072234 60 90 1.0 3.0 0.00 0.00 0.00 83 1019.4
20210622071725 61 180 2.0 4.0 0.00 0.00 0.00 82 1019.4
20210622071217 61 180 1.0 4.0 0.00 0.00 0.00 82 1019.4
20210622070706 61 135 0.0 0.0 0.00 0.00 0.00 81 1019.4
20210622070154 61 270 0.0 0.0 0.00 0.00 0.00 81 1019.3
20210622065643 61 270 0.0 2.0 0.00 0.00 0.00 80 1019.3
20210622065134 61 180 0.0 3.0 0.00 0.00 0.00 80 1019.3
20210622064624 62 90 1.0 4.0 0.00 0.00 0.00 80 1019.5
20210622064115 62 180 3.0 4.0 0.00 0.00 0.00 78 1019.3
20210622063606 63 180 1.0 3.0 0.00 0.00 0.00 76 1019.2
20210622063053 63 180 0.0 3.0 0.00 0.00 0.00 75 1019.3
20210622062542 64 180 3.0 5.0 0.00 0.00 0.00 70 1019.2
20210622062033 64 180 2.0 5.0 0.00 0.00 0.00 65 1019.3
20210622061525 67 135 0.0 1.0 0.00 0.00 0.00 56 1019.3
20210622061012 67 0 1.0 1.0 0.00 0.00 0.00 57 1019.4
20210622060502 67 0 1.0 1.0 0.00 0.00 0.00 61 1019.5
20210622055954 67 0 1.0 1.0 0.00 0.00 0.00 61 1019.4
20210622055442 67 0 1.0 1.0 0.00 0.00 0.00 64 1019.4
20210622054932 66 270 0.0 0.0 0.00 0.00 0.00 66 1019.3
20210622054423 67 270 0.0 0.0 0.00 0.00 0.00 66 1019.2
20210622053911 67 0 0.0 1.0 0.00 0.00 0.00 68 1019.4
20210622053401 71 90 0.0 3.0 0.00 0.00 0.00 15 1019.1
20210622052853 65 0 1.0 3.0 0.00 0.00 0.00 71 1019.3
20210622052342 65 0 0.0 1.0 0.00 0.00 0.00 71 1019.1
20210622051830 64 180 0.0 1.0 0.00 0.00 0.00 70 1019.4
20210622051321 65 180 0.0 2.0 0.00 0.00 0.00 69 1019.2
20210622050811 66 180 0.0 2.0 0.00 0.00 0.00 65 1019.0
20210622050300 66 180 1.0 1.0 0.00 0.00 0.00 63 1019.1
20210622045752 67 90 0.0 0.0 0.00 0.00 0.00 63 1019.0
20210622045240 68 0 0.0 0.0 0.00 0.00 0.00 63 1019.0
20210622044730 68 0 0.0 0.0 0.00 0.00 0.00 61 1018.9
20210622044221 68 0 0.0 0.0 0.00 0.00 0.00 61 1018.9
20210622043709 68 0 0.0 0.0 0.00 0.00 0.00 62 1019.2
20210622043200 68 0 0.0 0.0 0.00 0.00 0.00 64 1018.8
20210622042652 67 315 0.0 0.0 0.00 0.00 0.00 67 1018.9
20210622042139 67 270 0.0 0.0 0.00 0.00 0.00 67 1018.6
20210622041629 67 270 0.0 0.0 0.00 0.00 0.00 67 1018.6
20210622041120 67 270 0.0 0.0 0.00 0.00 0.00 66 1018.8
20210622040615 68 270 0.0 1.0 0.00 0.00 0.00 65 1018.8
20210622040113 68 270 0.0 3.0 0.00 0.00 0.00 65 1018.8
20210622035550 68 180 1.0 3.0 0.00 0.00 0.00 65 1018.8
20210622035038 68 90 1.0 3.0 0.00 0.00 0.00 65 1018.9
20210622034528 68 90 0.0 3.0 0.00 0.00 0.00 65 1018.6
20210622034021 69 180 1.0 2.0 0.00 0.00 0.00 65 1018.5
20210622033508 69 180 0.0 2.0 0.00 0.00 0.00 64 1018.3
20210622032449 69 180 0.0 0.0 0.00 0.00 0.00 64 1018.5
20210622031937 69 135 0.0 1.0 0.00 0.00 0.00 63 1018.3
20210622031429 70 180 0.0 2.0 0.00 0.00 0.00 62 1018.5
20210622030918 70 180 1.0 2.0 0.00 0.00 0.00 62 1018.4
20210622030407 71 180 0.0 3.0 0.00 0.00 0.00 62 1018.8
20210622025857 71 180 0.0 3.0 0.00 0.00 0.00 61 1018.5
20210622025347 71 180 0.0 3.0 0.00 0.00 0.00 61 1018.6
20210622024838 72 180 1.0 3.0 0.00 0.00 0.00 60 1018.5
20210622024327 72 180 1.0 3.0 0.00 0.00 0.00 60 1018.6
20210622023817 73 180 1.0 2.0 0.00 0.00 0.00 55 1018.3
20210622023306 73 180 1.0 1.0 0.00 0.00 0.00 54 1018.6
20210622022756 74 270 1.0 3.0 0.00 0.00 0.00 53 1018.5
20210622022248 74 180 2.0 3.0 0.00 0.00 0.00 52 1018.6
20210622021735 74 90 1.0 3.0 0.00 0.00 0.00 53 1018.8
20210622021226 74 90 0.0 3.0 0.00 0.00 0.00 53 1018.6
20210622020716 75 180 1.0 3.0 0.00 0.00 0.00 52 1018.9
20210622020205 75 180 1.0 4.0 0.00 0.00 0.00 52 1018.6
20210622015656 75 90 3.0 4.0 0.00 0.00 0.00 51 1018.9
20210622015146 76 180 1.0 4.0 0.00 0.00 0.00 50 1018.8
20210622014634 76 90 3.0 4.0 0.00 0.00 0.00 50 1018.8
20210622014125 77 180 2.0 5.0 0.00 0.00 0.00 51 1018.8
20210622013615 76 180 3.0 5.0 0.00 0.00 0.00 51 1018.4
20210622013107 77 90 3.0 5.0 0.00 0.00 0.00 50 1018.5
20210622012554 77 90 4.0 7.0 0.00 0.00 0.00 50 1018.8
20210622012045 78 0 1.0 7.0 0.00 0.00 0.00 50 1018.5
20210622011534 78 90 2.0 5.0 0.00 0.00 0.00 50 1018.9
20210622011024 78 135 3.0 5.0 0.00 0.00 0.00 47 1018.6
20210622010516 78 135 3.0 7.0 0.00 0.00 0.00 47 1018.8
20210622010014 79 90 2.0 7.0 0.00 0.00 0.00 48 1018.8
20210622005453 78 180 6.0 7.0 0.00 0.00 0.00 47 1018.9
20210622004945 79 135 3.0 7.0 0.00 0.00 0.00 47 1018.8
20210622004433 79 180 4.0 6.0 0.00 0.00 0.00 45 1018.8
20210622003924 80 90 3.0 7.0 0.00 0.00 0.00 45 1018.9
20210622003414 80 180 5.0 7.0 0.00 0.00 0.00 45 1018.9
20210622002903 82 180 2.0 7.0 0.00 0.00 0.00 40 1018.9
20210622002355 81 180 3.0 7.0 0.00 0.00 0.00 43 1018.9
20210622001855 82 180 4.0 6.0 0.00 0.00 0.00 41 1019.0
20210622001333 82 135 3.0 6.0 0.00 0.00 0.00 40 1018.9
20210622000822 82 135 3.0 4.0 0.00 0.00 0.00 41 1019.1
20210622000315 82 180 3.0 9.0 0.00 0.00 0.00 40 1019.1
20210621235802 82 180 3.0 9.0 0.00 0.00 0.00 41 1019.2
20210621235252 82 90 5.0 8.0 0.00 0.00 0.00 40 1018.9
20210621234744 82 180 5.0 7.0 0.00 0.00 0.00 40 1019.0
20210621234231 82 180 5.0 9.0 0.00 0.00 0.00 40 1018.9
20210621233721 82 135 3.0 9.0 0.00 0.00 0.00 40 1019.2
20210621233212 83 90 5.0 9.0 0.00 0.00 0.00 40 1019.1
20210621232701 82 225 6.0 9.0 0.00 0.00 0.00 40 1019.0
20210621232153 83 180 3.0 9.0 0.00 0.00 0.00 40 1019.2
20210621231642 83 180 7.0 8.0 0.00 0.00 0.00 39 1019.0
20210621231130 83 180 5.0 9.0 0.00 0.00 0.00 39 1019.3
20210621230620 84 180 5.0 9.0 0.00 0.00 0.00 40 1019.4
20210621230111 83 180 4.0 8.0 0.00 0.00 0.00 39 1019.3
20210621225602 84 135 3.0 9.0 0.00 0.00 0.00 40 1019.4
20210621225050 83 180 5.0 9.0 0.00 0.00 0.00 40 1019.4
20210621224541 81 180 4.0 9.0 0.00 0.00 0.00 43 1019.7
20210621224030 82 90 5.0 9.0 0.00 0.00 0.00 40 1019.4
20210621223521 81 180 7.0 9.0 0.00 0.00 0.00 44 1019.5
20210621223012 81 180 7.0 9.0 0.00 0.00 0.00 42 1019.6
20210621222459 81 90 5.0 7.0 0.00 0.00 0.00 43 1019.6
20210621221950 84 135 3.0 10.0 0.00 0.00 0.00 41 1019.8
20210621221441 82 135 1.0 10.0 0.00 0.00 0.00 41 1019.7
20210621220928 83 270 5.0 10.0 0.00 0.00 0.00 40 1019.9
20210621220420 81 180 7.0 10.0 0.00 0.00 0.00 43 1019.8
20210621215910 82 135 3.0 8.0 0.00 0.00 0.00 40 1019.7
20210621215359 82 135 6.0 10.0 0.00 0.00 0.00 40 1019.8
20210621214848 81 90 6.0 10.0 0.00 0.00 0.00 43 1019.8
20210621214339 82 180 5.0 9.0 0.00 0.00 0.00 40 1019.8
20210621213829 84 180 3.0 9.0 0.00 0.00 0.00 39 1019.9
20210621213318 84 180 5.0 9.0 0.00 0.00 0.00 37 1019.7
20210621212808 84 180 5.0 8.0 0.00 0.00 0.00 36 1019.8
20210621212257 84 135 5.0 10.0 0.00 0.00 0.00 34 1019.8
20210621211747 83 135 6.0 10.0 0.00 0.00 0.00 34 1020.1
20210621211240 83 90 3.0 10.0 0.00 0.00 0.00 34 1020.0
20210621210727 83 90 3.0 8.0 0.00 0.00 0.00 35 1019.9
20210621210216 83 135 7.0 10.0 0.00 0.00 0.00 34 1020.2
20210621205708 83 45 4.0 10.0 0.00 0.00 0.00 35 1019.9
20210621205157 82 90 5.0 11.0 0.00 0.00 0.00 36 1020.0
20210621204648 83 180 3.0 11.0 0.00 0.00 0.00 38 1019.9
20210621204138 83 180 5.0 8.0 0.00 0.00 0.00 37 1019.8
20210621203630 84 180 5.0 13.0 0.00 0.00 0.00 39 1020.1
20210621203116 82 180 7.0 13.0 0.00 0.00 0.00 38 1019.9
20210621202607 82 135 7.0 8.0 0.00 0.00 0.00 37 1019.9
20210621202057 83 180 3.0 9.0 0.00 0.00 0.00 38 1020.1
20210621201546 81 180 3.0 9.0 0.00 0.00 0.00 42 1020.1
20210621201037 80 180 6.0 8.0 0.00 0.00 0.00 42 1020.4
20210621200525 81 135 3.0 8.0 0.00 0.00 0.00 42 1020.3
20210621200016 81 135 3.0 8.0 0.00 0.00 0.00 42 1020.2
20210621195508 82 135 5.0 9.0 0.00 0.00 0.00 40 1020.2
20210621194955 81 135 5.0 10.0 0.00 0.00 0.00 44 1020.2
20210621194445 79 135 9.0 10.0 0.00 0.00 0.00 44 1020.1
20210621193936 80 90 3.0 9.0 0.00 0.00 0.00 46 1020.1
20210621193429 80 135 6.0 9.0 0.00 0.00 0.00 46 1020.2
20210621192915 80 90 7.0 9.0 0.00 0.00 0.00 46 1020.3
20210621192408 79 135 6.0 9.0 0.00 0.00 0.00 47 1020.3
20210621191854 79 135 4.0 9.0 0.00 0.00 0.00 47 1020.3
20210621191344 80 270 4.0 9.0 0.00 0.00 0.00 46 1020.3
20210621190835 80 180 5.0 6.0 0.00 0.00 0.00 47 1020.4
20210621190325 80 180 3.0 7.0 0.00 0.00 0.00 49 1020.4
20210621185813 79 180 5.0 8.0 0.00 0.00 0.00 49 1021.0
20210621185305 79 180 2.0 8.0 0.00 0.00 0.00 50 1020.5
20210621184754 78 180 6.0 8.0 0.00 0.00 0.00 50 1020.5
20210621184243 78 180 5.0 8.0 0.00 0.00 0.00 50 1020.8
20210621183735 79 180 3.0 8.0 0.00 0.00 0.00 51 1020.5
20210621183223 79 135 4.0 8.0 0.00 0.00 0.00 51 1020.6
20210621182713 78 180 2.0 7.0 0.00 0.00 0.00 50 1020.5
20210621182205 78 90 3.0 7.0 0.00 0.00 0.00 50 1020.3
20210621181653 77 180 3.0 7.0 0.00 0.00 0.00 51 1020.5
20210621181143 77 180 5.0 7.0 0.00 0.00 0.00 52 1020.6